Time;durP1;ratioP1;P1;durP2;ratioP2;P2;SDS_P1;SDS_P2;PMS_P1;PMS_P2;Temp;Humidity;BMP_temperature;BMP_pressure;BME280_temperature;BME280_humidity;BME280_pressure;Samples;Min_cycle;Max_cycle;Signal;HPM_P1;HPM_P2
2024/03/19 00:00:21;;;;;;;8.57;4.03;;;;;;;;;;4336991;32;318442;-71
2024/03/19 00:02:47;;;;;;;7.20;4.60;;;;;;;;;;4328665;32;325015;-72
2024/03/19 00:05:16;;;;;;;11.67;6.87;;;;;;;;;;4338236;32;317176;-71
2024/03/19 00:07:43;;;;;;;18.10;10.17;;;;;;;;;;4325817;32;318404;-71
2024/03/19 00:10:10;;;;;;;15.53;9.77;;;;;;;;;;4337044;32;319519;-71
2024/03/19 00:12:37;;;;;;;13.20;7.37;;;;;;;;;;4326506;32;317648;-72
2024/03/19 00:15:05;;;;;;;8.53;5.50;;;;;;;;;;4336773;32;317706;-71
2024/03/19 00:17:32;;;;;;;11.83;6.27;;;;;;;;;;4326262;32;317554;-72
2024/03/19 00:19:59;;;;;;;11.23;7.13;;;;;;;;;;4334700;32;318244;-71
2024/03/19 00:22:26;;;;;;;7.03;5.13;;;;;;;;;;4337738;32;318486;-73
2024/03/19 00:24:53;;;;;;;7.10;4.70;;;;;;;;;;4328453;32;317320;-71
2024/03/19 00:27:20;;;;;;;9.70;4.63;;;;;;;;;;4336922;32;317750;-72
2024/03/19 00:29:46;;;;;;;8.90;4.87;;;;;;;;;;4325375;32;324322;-71
2024/03/19 00:32:13;;;;;;;7.87;3.93;;;;;;;;;;4337912;32;316501;-71
2024/03/19 00:34:40;;;;;;;6.00;3.93;;;;;;;;;;4328037;32;317454;-72
2024/03/19 00:37:07;;;;;;;7.43;5.00;;;;;;;;;;4336994;32;317788;-71
2024/03/19 00:39:36;;;;;;;5.83;4.07;;;;;;;;;;4328170;32;317159;-73
2024/03/19 00:42:03;;;;;;;7.47;4.03;;;;;;;;;;4335465;32;335637;-69
2024/03/19 00:44:30;;;;;;;9.17;4.57;;;;;;;;;;4328241;32;317338;-71
2024/03/19 00:46:57;;;;;;;7.20;5.27;;;;;;;;;;4336241;32;316735;-71
2024/03/19 00:49:24;;;;;;;7.37;4.97;;;;;;;;;;4337709;32;317700;-73
2024/03/19 00:51:51;;;;;;;8.43;4.87;;;;;;;;;;4325573;32;317152;-74
2024/03/19 00:54:18;;;;;;;8.80;3.67;;;;;;;;;;4337547;32;317630;-72
2024/03/19 00:56:46;;;;;;;7.77;4.27;;;;;;;;;;4327674;32;317299;-72
2024/03/19 00:59:13;;;;;;;5.80;3.80;;;;;;;;;;4337838;32;317270;-74
2024/03/19 01:01:40;;;;;;;6.37;3.20;;;;;;;;;;4325825;32;317594;-73
2024/03/19 01:04:07;;;;;;;4.87;3.10;;;;;;;;;;4334167;32;318002;-73
2024/03/19 01:06:36;;;;;;;6.43;4.07;;;;;;;;;;4326516;32;317185;-71
2024/03/19 01:09:05;;;;;;;3.80;3.40;;;;;;;;;;4337379;32;317156;-71
2024/03/19 01:11:32;;;;;;;5.60;3.50;;;;;;;;;;4324340;32;349906;-73
2024/03/19 01:14:00;;;;;;;8.00;4.57;;;;;;;;;;4334244;32;317157;-73
2024/03/19 01:16:27;;;;;;;7.43;4.47;;;;;;;;;;4336336;32;317606;-72
2024/03/19 01:18:54;;;;;;;5.53;3.90;;;;;;;;;;4324852;32;416620;-71
2024/03/19 01:21:21;;;;;;;5.40;4.03;;;;;;;;;;4336087;32;317211;-71
2024/03/19 01:23:48;;;;;;;6.73;4.43;;;;;;;;;;4325450;32;317443;-73
2024/03/19 01:26:14;;;;;;;5.00;3.73;;;;;;;;;;4337536;32;317437;-72
2024/03/19 01:28:41;;;;;;;7.73;5.37;;;;;;;;;;4327081;32;317697;-72
2024/03/19 01:31:09;;;;;;;9.53;5.50;;;;;;;;;;4336340;32;317265;-71
2024/03/19 01:33:36;;;;;;;8.00;5.27;;;;;;;;;;4326716;32;317545;-72
2024/03/19 01:36:02;;;;;;;6.80;4.77;;;;;;;;;;4334732;32;317396;-72
2024/03/19 01:38:29;;;;;;;7.63;5.00;;;;;;;;;;4327208;32;316710;-72
2024/03/19 01:40:56;;;;;;;8.83;5.87;;;;;;;;;;4336204;32;317074;-73
2024/03/19 01:43:23;;;;;;;11.80;5.10;;;;;;;;;;4335672;32;317528;-74
2024/03/19 01:46:16;;;;;;;8.37;5.87;;;;;;;;;;4324385;32;318266;-70
2024/03/19 01:48:43;;;;;;;7.87;6.10;;;;;;;;;;4326608;32;317291;-71
2024/03/19 01:51:11;;;;;;;9.17;5.83;;;;;;;;;;4336203;32;317300;-71
2024/03/19 01:53:37;;;;;;;10.97;6.60;;;;;;;;;;4327326;32;317353;-71
2024/03/19 01:56:06;;;;;;;12.87;6.03;;;;;;;;;;4335353;32;317492;-71
2024/03/19 01:58:34;;;;;;;9.23;6.03;;;;;;;;;;4325277;32;379027;-73
2024/03/19 02:01:01;;;;;;;8.63;6.20;;;;;;;;;;4338889;32;317306;-73
2024/03/19 02:03:29;;;;;;;12.70;7.03;;;;;;;;;;4339278;32;317379;-72
2024/03/19 02:05:56;;;;;;;11.70;6.00;;;;;;;;;;4324749;32;416382;-71
2024/03/19 02:08:23;;;;;;;10.67;5.53;;;;;;;;;;4339796;32;318345;-71
2024/03/19 02:10:50;;;;;;;9.30;6.63;;;;;;;;;;4329359;32;318949;-71
2024/03/19 02:13:17;;;;;;;8.43;5.43;;;;;;;;;;4338878;32;317254;-71
2024/03/19 02:15:46;;;;;;;8.50;5.13;;;;;;;;;;4327012;32;317932;-72
2024/03/19 02:18:14;;;;;;;7.47;5.70;;;;;;;;;;4340102;32;317478;-71
2024/03/19 02:20:42;;;;;;;9.33;5.50;;;;;;;;;;4330213;32;317317;-71
2024/03/19 02:23:10;;;;;;;7.13;5.07;;;;;;;;;;4339868;32;318055;-71
2024/03/19 02:25:37;;;;;;;6.33;5.00;;;;;;;;;;4328060;32;317335;-71
2024/03/19 02:28:04;;;;;;;9.40;5.47;;;;;;;;;;4338261;32;317090;-71
2024/03/19 02:30:31;;;;;;;9.97;5.80;;;;;;;;;;4328005;32;317465;-71
2024/03/19 02:32:58;;;;;;;9.53;5.93;;;;;;;;;;4338585;32;317342;-71
2024/03/19 02:35:24;;;;;;;15.73;7.77;;;;;;;;;;4339674;32;317504;-73
2024/03/19 02:37:51;;;;;;;11.53;6.87;;;;;;;;;;4327420;32;318287;-71
2024/03/19 02:40:20;;;;;;;6.73;5.17;;;;;;;;;;4338485;32;318267;-72
2024/03/19 02:42:47;;;;;;;7.17;4.97;;;;;;;;;;4330054;32;317560;-71
2024/03/19 02:45:14;;;;;;;8.27;6.37;;;;;;;;;;4338295;32;316930;-72
2024/03/19 02:47:41;;;;;;;13.13;8.00;;;;;;;;;;4326549;32;334180;-70
2024/03/19 02:50:08;;;;;;;10.13;6.07;;;;;;;;;;4338944;32;318352;-71
2024/03/19 02:52:35;;;;;;;10.40;6.70;;;;;;;;;;4328435;32;318369;-70
2024/03/19 02:55:02;;;;;;;7.17;6.47;;;;;;;;;;4336206;32;334512;-71
2024/03/19 02:57:30;;;;;;;8.50;6.10;;;;;;;;;;4329743;32;317280;-71
2024/03/19 02:59:57;;;;;;;8.63;5.10;;;;;;;;;;4337964;32;317295;-72
2024/03/19 03:02:24;;;;;;;6.10;4.37;;;;;;;;;;4327371;32;317197;-70
2024/03/19 03:04:50;;;;;;;5.83;4.63;;;;;;;;;;4338528;32;316791;-71
2024/03/19 03:07:17;;;;;;;7.43;4.87;;;;;;;;;;4328383;32;317079;-72
2024/03/19 03:09:44;;;;;;;6.87;4.60;;;;;;;;;;4338317;32;317301;-72
2024/03/19 03:12:10;;;;;;;5.53;4.13;;;;;;;;;;4329157;32;317165;-72
2024/03/19 03:14:39;;;;;;;11.70;5.03;;;;;;;;;;4336050;32;316626;-72
2024/03/19 03:17:08;;;;;;;7.20;5.13;;;;;;;;;;4338812;32;317464;-71
2024/03/19 03:19:34;;;;;;;5.43;4.37;;;;;;;;;;4326015;32;416317;-72
2024/03/19 03:22:02;;;;;;;8.43;5.03;;;;;;;;;;4338339;32;317754;-70
2024/03/19 03:24:30;;;;;;;11.37;6.43;;;;;;;;;;4326915;32;317377;-72
2024/03/19 03:26:57;;;;;;;8.10;5.40;;;;;;;;;;4338801;32;318208;-71
2024/03/19 03:29:25;;;;;;;8.87;5.53;;;;;;;;;;4328408;32;335162;-71
2024/03/19 03:31:53;;;;;;;11.23;5.43;;;;;;;;;;4338746;32;317363;-71
2024/03/19 03:34:21;;;;;;;7.20;5.53;;;;;;;;;;4326838;32;318404;-71
2024/03/19 03:36:49;;;;;;;13.10;5.27;;;;;;;;;;4338242;32;317176;-71
2024/03/19 03:39:16;;;;;;;11.30;5.77;;;;;;;;;;4327591;32;318526;-70
2024/03/19 03:41:43;;;;;;;11.03;6.13;;;;;;;;;;4338084;32;336372;-70
2024/03/19 03:44:09;;;;;;;14.83;9.87;;;;;;;;;;4328851;32;318412;-70
2024/03/19 03:46:37;;;;;;;13.13;7.70;;;;;;;;;;4335357;32;318571;-70
2024/03/19 03:49:05;;;;;;;9.57;7.23;;;;;;;;;;4338274;32;318318;-72
2024/03/19 03:51:32;;;;;;;10.50;7.73;;;;;;;;;;4328831;32;317393;-71
2024/03/19 03:53:59;;;;;;;15.40;9.20;;;;;;;;;;4337510;32;318394;-70
2024/03/19 03:56:25;;;;;;;9.17;6.93;;;;;;;;;;4325729;32;317730;-71
2024/03/19 03:58:52;;;;;;;13.20;8.33;;;;;;;;;;4337763;32;317371;-71
2024/03/19 04:01:22;;;;;;;9.83;7.30;;;;;;;;;;4327367;32;318406;-70
2024/03/19 04:03:49;;;;;;;19.17;14.27;;;;;;;;;;4338602;32;317092;-73
2024/03/19 04:06:17;;;;;;;20.17;12.97;;;;;;;;;;4327102;32;319476;-74
2024/03/19 04:08:46;;;;;;;15.10;11.20;;;;;;;;;;4337411;32;319420;-71
2024/03/19 04:11:13;;;;;;;17.43;10.10;;;;;;;;;;4327239;32;320028;-71
2024/03/19 04:13:40;;;;;;;13.17;9.83;;;;;;;;;;4337970;32;319251;-71
2024/03/19 04:16:07;;;;;;;10.63;7.60;;;;;;;;;;4325699;32;343844;-71
2024/03/19 04:18:34;;;;;;;12.10;6.93;;;;;;;;;;4334467;32;318746;-71
2024/03/19 04:21:01;;;;;;;11.17;6.37;;;;;;;;;;4338039;32;318361;-71
2024/03/19 04:23:29;;;;;;;8.03;5.13;;;;;;;;;;4328185;32;318116;-71
2024/03/19 04:25:55;;;;;;;7.00;4.53;;;;;;;;;;4338468;32;316488;-71
2024/03/19 04:28:22;;;;;;;3.60;3.23;;;;;;;;;;4324978;32;317632;-71
2024/03/19 04:30:49;;;;;;;6.00;3.17;;;;;;;;;;4336726;32;351441;-71
2024/03/19 04:33:15;;;;;;;6.20;4.07;;;;;;;;;;4328626;32;317691;-71
2024/03/19 04:35:42;;;;;;;10.03;4.43;;;;;;;;;;4337174;32;317549;-72
2024/03/19 04:38:10;;;;;;;8.70;5.37;;;;;;;;;;4326967;32;318322;-71
2024/03/19 04:40:38;;;;;;;7.87;5.27;;;;;;;;;;4335148;32;317224;-72
2024/03/19 04:43:05;;;;;;;8.53;5.00;;;;;;;;;;4336831;32;317273;-70
2024/03/19 04:45:32;;;;;;;7.10;5.23;;;;;;;;;;4325356;32;417873;-71
2024/03/19 04:47:58;;;;;;;9.17;5.93;;;;;;;;;;4337787;32;316972;-71
2024/03/19 04:50:27;;;;;;;9.90;6.70;;;;;;;;;;4324187;32;317323;-70
2024/03/19 04:52:54;;;;;;;10.23;6.83;;;;;;;;;;4336494;32;327770;-71
2024/03/19 04:55:22;;;;;;;14.13;7.37;;;;;;;;;;4327494;32;318353;-72
2024/03/19 04:57:50;;;;;;;16.33;8.03;;;;;;;;;;4329538;32;317786;-71
2024/03/19 05:00:17;;;;;;;17.27;9.20;;;;;;;;;;4327639;32;318065;-71
2024/03/19 05:02:44;;;;;;;23.37;11.53;;;;;;;;;;4335853;32;318253;-71
2024/03/19 05:05:12;;;;;;;23.03;12.77;;;;;;;;;;4326533;32;319076;-71
2024/03/19 05:07:39;;;;;;;30.37;16.93;;;;;;;;;;4337658;32;319338;-71
2024/03/19 05:10:07;;;;;;;36.17;19.10;;;;;;;;;;4337751;32;319541;-71
2024/03/19 05:12:34;;;;;;;29.57;17.93;;;;;;;;;;4322398;32;417924;-71
2024/03/19 05:15:03;;;;;;;43.97;23.60;;;;;;;;;;4337359;32;318936;-71
2024/03/19 05:17:29;;;;;;;64.50;35.70;;;;;;;;;;4327249;32;318808;-71
2024/03/19 05:19:56;;;;;;;88.13;47.97;;;;;;;;;;4335606;32;319140;-71
2024/03/19 05:22:23;;;;;;;120.23;65.70;;;;;;;;;;4325130;32;319507;-72
2024/03/19 05:24:50;;;;;;;141.03;78.63;;;;;;;;;;4336771;32;320091;-73
2024/03/19 05:27:17;;;;;;;169.93;94.40;;;;;;;;;;4326518;32;319811;-72
2024/03/19 05:29:44;;;;;;;142.03;78.47;;;;;;;;;;4337425;32;320289;-71
2024/03/19 05:32:12;;;;;;;118.07;70.37;;;;;;;;;;4327344;32;320578;-71
2024/03/19 05:34:39;;;;;;;44.47;27.13;;;;;;;;;;4334699;32;320241;-71
2024/03/19 05:37:06;;;;;;;40.67;24.93;;;;;;;;;;4340796;32;319355;-71
2024/03/19 05:39:32;;;;;;;32.67;18.77;;;;;;;;;;4326518;32;418691;-72
2024/03/19 05:41:59;;;;;;;30.23;18.33;;;;;;;;;;4338246;32;318770;-70
2024/03/19 05:44:26;;;;;;;26.43;19.00;;;;;;;;;;4328023;32;318722;-71
2024/03/19 05:46:52;;;;;;;43.23;25.67;;;;;;;;;;4339521;32;319621;-71
2024/03/19 05:49:21;;;;;;;28.57;17.27;;;;;;;;;;4328574;32;319843;-71
2024/03/19 05:51:48;;;;;;;25.13;18.30;;;;;;;;;;4337680;32;335901;-72
2024/03/19 05:54:15;;;;;;;29.93;19.67;;;;;;;;;;4329590;32;319359;-71
2024/03/19 05:56:41;;;;;;;22.47;15.70;;;;;;;;;;4337139;32;319377;-71
2024/03/19 05:59:10;;;;;;;24.83;15.13;;;;;;;;;;4328862;32;319480;-73
2024/03/19 06:01:37;;;;;;;21.53;15.20;;;;;;;;;;4339459;32;319200;-72
2024/03/19 06:04:07;;;;;;;33.57;16.73;;;;;;;;;;4340379;32;319386;-71
2024/03/19 06:06:35;;;;;;;26.83;17.10;;;;;;;;;;4324600;32;418430;-72
2024/03/19 06:09:02;;;;;;;26.60;16.27;;;;;;;;;;4339475;32;318626;-73
2024/03/19 06:11:29;;;;;;;21.37;13.83;;;;;;;;;;4327524;32;349007;-71
2024/03/19 06:13:56;;;;;;;20.20;13.60;;;;;;;;;;4339835;32;319196;-71
2024/03/19 06:16:22;;;;;;;25.47;12.77;;;;;;;;;;4326167;32;319569;-70
2024/03/19 06:18:49;;;;;;;32.30;16.30;;;;;;;;;;4337361;32;318851;-70
2024/03/19 06:21:16;;;;;;;31.90;19.47;;;;;;;;;;4328611;32;349613;-70
2024/03/19 06:23:44;;;;;;;45.37;25.77;;;;;;;;;;4338305;32;319570;-70
2024/03/19 06:26:11;;;;;;;42.23;27.33;;;;;;;;;;4327664;32;318875;-70
2024/03/19 06:28:40;;;;;;;39.73;22.03;;;;;;;;;;4337087;32;319385;-70
2024/03/19 06:31:07;;;;;;;33.33;19.53;;;;;;;;;;4329285;32;319410;-71
2024/03/19 06:33:33;;;;;;;29.63;20.87;;;;;;;;;;4337756;32;319477;-71
2024/03/19 06:36:00;;;;;;;34.10;22.83;;;;;;;;;;4338120;32;319186;-69
2024/03/19 06:38:30;;;;;;;41.13;24.80;;;;;;;;;;4325251;32;346306;-70
2024/03/19 06:40:58;;;;;;;38.23;24.80;;;;;;;;;;4338891;32;319677;-70
2024/03/19 06:43:25;;;;;;;38.57;24.73;;;;;;;;;;4329139;32;319589;-71
2024/03/19 06:45:52;;;;;;;35.27;21.57;;;;;;;;;;4338515;32;319216;-70
2024/03/19 06:48:19;;;;;;;36.50;24.03;;;;;;;;;;4326942;32;319557;-70
2024/03/19 06:50:46;;;;;;;34.57;23.07;;;;;;;;;;4336938;32;319624;-71
2024/03/19 06:53:15;;;;;;;36.90;25.30;;;;;;;;;;4329253;32;319438;-71
2024/03/19 06:55:42;;;;;;;46.67;28.70;;;;;;;;;;4338145;32;319532;-70
2024/03/19 06:58:10;;;;;;;39.73;27.37;;;;;;;;;;4328670;32;319385;-73
2024/03/19 07:00:37;;;;;;;34.37;24.10;;;;;;;;;;4336547;32;331733;-69
2024/03/19 07:03:05;;;;;;;31.40;20.80;;;;;;;;;;4338035;32;319388;-69
2024/03/19 07:05:32;;;;;;;30.97;22.13;;;;;;;;;;4324830;32;418746;-69
2024/03/19 07:07:59;;;;;;;42.53;23.60;;;;;;;;;;4339038;32;318726;-70
2024/03/19 07:10:27;;;;;;;32.47;22.13;;;;;;;;;;4324896;32;319429;-72
2024/03/19 07:12:54;;;;;;;32.97;22.10;;;;;;;;;;4337985;32;318898;-72
2024/03/19 07:15:23;;;;;;;32.27;21.50;;;;;;;;;;4328761;32;319522;-72
2024/03/19 07:17:51;;;;;;;26.73;19.73;;;;;;;;;;4338343;32;319334;-70
2024/03/19 07:20:19;;;;;;;30.97;18.80;;;;;;;;;;4327768;32;322192;-71
2024/03/19 07:22:47;;;;;;;26.10;17.17;;;;;;;;;;4338547;32;318760;-70
2024/03/19 07:25:14;;;;;;;27.77;20.27;;;;;;;;;;4327534;32;319505;-70
2024/03/19 07:27:41;;;;;;;28.50;20.47;;;;;;;;;;4338595;32;319483;-70
2024/03/19 07:30:10;;;;;;;28.37;20.07;;;;;;;;;;4327830;32;318704;-71
2024/03/19 07:32:38;;;;;;;30.13;21.80;;;;;;;;;;4334149;32;319497;-72
2024/03/19 07:35:07;;;;;;;30.33;21.60;;;;;;;;;;4337979;32;337192;-71
2024/03/19 07:37:34;;;;;;;30.67;18.53;;;;;;;;;;4323714;32;418498;-71
2024/03/19 07:40:03;;;;;;;24.90;18.43;;;;;;;;;;4330791;32;318782;-71
2024/03/19 07:42:30;;;;;;;26.57;19.03;;;;;;;;;;4326272;32;319531;-70
2024/03/19 07:44:57;;;;;;;28.70;21.93;;;;;;;;;;4338581;32;319484;-71
2024/03/19 07:47:25;;;;;;;35.93;25.47;;;;;;;;;;4327176;32;319487;-72
2024/03/19 07:49:53;;;;;;;23.17;17.80;;;;;;;;;;4338197;32;319487;-70
2024/03/19 07:52:20;;;;;;;21.87;15.43;;;;;;;;;;4323769;32;355666;-71
2024/03/19 07:54:47;;;;;;;33.67;20.70;;;;;;;;;;4338053;32;318815;-70
2024/03/19 07:57:14;;;;;;;25.87;17.60;;;;;;;;;;4326732;32;319404;-70
2024/03/19 07:59:43;;;;;;;37.07;25.10;;;;;;;;;;4336577;32;319421;-70
2024/03/19 08:02:10;;;;;;;19.23;13.70;;;;;;;;;;4325752;32;337084;-70
2024/03/19 08:04:37;;;;;;;21.37;13.90;;;;;;;;;;4335774;32;319471;-71
2024/03/19 08:07:06;;;;;;;17.20;9.53;;;;;;;;;;4337921;32;319377;-73
2024/03/19 08:09:33;;;;;;;17.97;9.53;;;;;;;;;;4324395;32;414783;-72
2024/03/19 08:12:05;;;;;;;18.50;9.57;;;;;;;;;;4337836;32;317990;-71
2024/03/19 08:14:34;;;;;;;16.13;9.40;;;;;;;;;;4322665;32;417037;-72
2024/03/19 08:17:02;;;;;;;15.70;9.30;;;;;;;;;;4337566;32;317769;-71
2024/03/19 08:19:29;;;;;;;14.80;8.93;;;;;;;;;;4327739;32;318409;-71
2024/03/19 08:21:55;;;;;;;16.73;11.13;;;;;;;;;;4336596;32;318732;-71
2024/03/19 08:24:24;;;;;;;13.97;8.40;;;;;;;;;;4324304;32;325398;-70
2024/03/19 08:26:50;;;;;;;10.50;6.93;;;;;;;;;;4335280;32;317800;-71
2024/03/19 08:29:17;;;;;;;10.50;7.97;;;;;;;;;;4326521;32;318251;-74
2024/03/19 08:31:44;;;;;;;16.40;9.53;;;;;;;;;;4337454;32;317851;-72
2024/03/19 08:34:11;;;;;;;15.37;9.03;;;;;;;;;;4328209;32;318577;-71
2024/03/19 08:36:37;;;;;;;14.10;9.77;;;;;;;;;;4333767;32;318601;-73
2024/03/19 08:39:05;;;;;;;16.30;6.73;;;;;;;;;;4335908;32;348313;-71
2024/03/19 08:41:34;;;;;;;20.77;10.90;;;;;;;;;;4320418;32;318336;-73
2024/03/19 08:44:02;;;;;;;16.57;8.63;;;;;;;;;;4336033;32;319371;-73
2024/03/19 08:46:28;;;;;;;16.87;9.00;;;;;;;;;;4323357;32;318372;-73
2024/03/19 08:48:55;;;;;;;38.80;19.67;;;;;;;;;;4337438;32;318258;-70
2024/03/19 08:51:22;;;;;;;26.07;14.03;;;;;;;;;;4326358;32;319353;-71
2024/03/19 08:53:48;;;;;;;9.93;5.77;;;;;;;;;;4335980;32;319078;-71
2024/03/19 08:56:18;;;;;;;12.27;5.83;;;;;;;;;;4325145;32;336194;-72
2024/03/19 08:58:47;;;;;;;11.80;5.93;;;;;;;;;;4336858;32;318455;-71
2024/03/19 09:01:14;;;;;;;30.53;13.93;;;;;;;;;;4326564;32;318651;-72
2024/03/19 09:03:41;;;;;;;7.97;5.37;;;;;;;;;;4337284;32;319650;-73
2024/03/19 09:06:08;;;;;;;4.07;3.67;;;;;;;;;;4327042;32;317389;-73
2024/03/19 09:08:35;;;;;;;5.57;2.90;;;;;;;;;;4335364;32;317449;-73
2024/03/19 09:11:02;;;;;;;3.97;2.80;;;;;;;;;;4336970;32;317949;-71
2024/03/19 09:13:28;;;;;;;3.73;2.60;;;;;;;;;;4326488;32;317442;-70
2024/03/19 09:15:56;;;;;;;4.17;2.67;;;;;;;;;;4335782;32;316647;-73
2024/03/19 09:18:23;;;;;;;5.73;2.87;;;;;;;;;;4323971;32;331600;-70
2024/03/19 09:20:50;;;;;;;3.27;2.40;;;;;;;;;;4336734;32;317742;-71
2024/03/19 09:23:17;;;;;;;7.07;2.50;;;;;;;;;;4319245;32;316566;-71
2024/03/19 09:25:44;;;;;;;15.17;8.70;;;;;;;;;;4337080;32;317436;-71
2024/03/19 09:28:11;;;;;;;12.10;5.63;;;;;;;;;;4325797;32;317642;-72
2024/03/19 09:30:38;;;;;;;21.17;8.83;;;;;;;;;;4334484;32;317611;-72
2024/03/19 09:33:09;;;;;;;20.67;7.73;;;;;;;;;;4336990;32;318400;-71
2024/03/19 09:35:36;;;;;;;13.60;7.23;;;;;;;;;;4323922;32;417270;-70
2024/03/19 09:38:03;;;;;;;12.40;7.93;;;;;;;;;;4335951;32;318261;-73
2024/03/19 09:40:30;;;;;;;11.33;6.73;;;;;;;;;;4323618;32;318339;-71
2024/03/19 09:42:56;;;;;;;4.63;3.80;;;;;;;;;;4335816;32;318379;-73
2024/03/19 09:45:28;;;;;;;6.23;3.43;;;;;;;;;;4327240;32;317659;-72
2024/03/19 09:47:56;;;;;;;3.20;2.90;;;;;;;;;;4337420;32;317084;-72
2024/03/19 09:50:26;;;;;;;7.77;5.00;;;;;;;;;;4325021;32;317595;-71
2024/03/19 09:52:55;;;;;;;13.40;5.60;;;;;;;;;;4336898;32;317447;-72
2024/03/19 09:55:25;;;;;;;6.97;5.47;;;;;;;;;;4327344;32;318347;-72
2024/03/19 09:57:53;;;;;;;9.40;6.80;;;;;;;;;;4336802;32;317262;-71
2024/03/19 10:00:25;;;;;;;11.23;7.60;;;;;;;;;;4323375;32;317519;-71
2024/03/19 10:02:52;;;;;;;13.50;7.03;;;;;;;;;;4336489;32;318695;-72
2024/03/19 10:05:19;;;;;;;9.17;6.80;;;;;;;;;;4327173;32;318252;-72
2024/03/19 10:07:49;;;;;;;13.17;8.67;;;;;;;;;;4336828;32;316596;-73
2024/03/19 10:10:17;;;;;;;8.37;6.27;;;;;;;;;;4325394;32;318571;-72
2024/03/19 10:12:44;;;;;;;8.07;7.17;;;;;;;;;;4335126;32;317337;-71
2024/03/19 10:15:18;;;;;;;10.87;8.03;;;;;;;;;;4325885;32;317354;-71
2024/03/19 10:17:45;;;;;;;9.00;5.70;;;;;;;;;;4336811;32;318474;-71
2024/03/19 10:20:15;;;;;;;4.40;3.53;;;;;;;;;;4325472;32;317588;-70
2024/03/19 10:22:44;;;;;;;7.97;5.40;;;;;;;;;;4336823;32;316702;-71
2024/03/19 10:25:14;;;;;;;19.43;9.87;;;;;;;;;;4327563;32;336488;-71
2024/03/19 10:27:44;;;;;;;16.23;11.97;;;;;;;;;;4338149;32;318455;-71
2024/03/19 10:30:13;;;;;;;8.13;5.77;;;;;;;;;;4325496;32;353422;-72
2024/03/19 10:32:40;;;;;;;14.53;10.80;;;;;;;;;;4336646;32;317060;-72
2024/03/19 10:35:19;;;;;;;11.43;8.17;;;;;;;;;;4328922;32;319474;-70
2024/03/19 10:37:48;;;;;;;34.07;21.47;;;;;;;;;;4339410;32;317588;-74
2024/03/19 10:40:18;;;;;;;17.17;15.17;;;;;;;;;;4327958;32;318486;-71
2024/03/19 10:42:47;;;;;;;34.10;24.63;;;;;;;;;;4338660;32;318733;-72
2024/03/19 10:45:19;;;;;;;21.30;15.87;;;;;;;;;;4328512;32;344037;-71
2024/03/19 10:47:47;;;;;;;15.63;10.90;;;;;;;;;;4338609;32;319114;-71
2024/03/19 10:50:15;;;;;;;10.47;7.83;;;;;;;;;;4327936;32;319283;-71
2024/03/19 10:52:49;;;;;;;15.30;10.43;;;;;;;;;;4336231;32;317496;-70
2024/03/19 10:55:19;;;;;;;26.33;18.63;;;;;;;;;;4329145;32;319405;-71
2024/03/19 10:57:47;;;;;;;22.20;12.23;;;;;;;;;;4339189;32;319950;-73
2024/03/19 11:00:27;;;;;;;9.27;5.03;;;;;;;;;;4328961;32;319376;-70
2024/03/19 11:02:56;;;;;;;18.07;13.13;;;;;;;;;;4337877;32;317196;-70
2024/03/19 11:05:23;;;;;;;25.13;14.43;;;;;;;;;;4328921;32;319363;-71
2024/03/19 11:07:51;;;;;;;66.47;34.53;;;;;;;;;;4338991;32;318775;-74
2024/03/19 11:10:26;;;;;;;34.60;22.83;;;;;;;;;;4326704;32;319497;-73
2024/03/19 11:12:57;;;;;;;32.63;22.27;;;;;;;;;;4337935;32;319253;-71
2024/03/19 11:15:24;;;;;;;25.90;15.03;;;;;;;;;;4328544;32;319347;-71
2024/03/19 11:17:51;;;;;;;39.20;19.37;;;;;;;;;;4338340;32;319547;-71
2024/03/19 11:20:18;;;;;;;18.03;9.53;;;;;;;;;;4328342;32;319312;-73
2024/03/19 11:22:47;;;;;;;30.23;16.90;;;;;;;;;;4338567;32;318444;-73
2024/03/19 11:25:16;;;;;;;33.80;15.77;;;;;;;;;;4328248;32;319515;-72
2024/03/19 11:27:50;;;;;;;33.27;16.43;;;;;;;;;;4337345;32;319507;-73
2024/03/19 11:30:18;;;;;;;27.53;12.73;;;;;;;;;;4328677;32;319328;-71
2024/03/19 11:32:46;;;;;;;72.10;27.87;;;;;;;;;;4338332;32;319572;-72
2024/03/19 11:35:20;;;;;;;16.83;9.47;;;;;;;;;;4327924;32;319401;-72
2024/03/19 11:37:49;;;;;;;12.37;8.67;;;;;;;;;;4337634;32;318256;-72
2024/03/19 11:40:16;;;;;;;12.73;9.00;;;;;;;;;;4327075;32;318631;-71
2024/03/19 11:42:43;;;;;;;11.97;7.43;;;;;;;;;;4337222;32;318443;-70
2024/03/19 11:45:15;;;;;;;23.90;14.07;;;;;;;;;;4328619;32;318507;-71
2024/03/19 11:47:44;;;;;;;14.93;8.00;;;;;;;;;;4338042;32;319130;-71
2024/03/19 11:50:16;;;;;;;11.47;5.27;;;;;;;;;;4327535;32;318240;-71
2024/03/19 11:52:42;;;;;;;11.90;7.03;;;;;;;;;;4334429;32;318245;-71
2024/03/19 11:55:10;;;;;;;12.67;7.70;;;;;;;;;;4327536;32;334009;-71
2024/03/19 11:57:37;;;;;;;12.57;7.73;;;;;;;;;;4337902;32;318346;-71
2024/03/19 12:00:10;;;;;;;10.70;6.27;;;;;;;;;;4338208;32;317866;-72
2024/03/19 12:02:38;;;;;;;49.23;25.40;;;;;;;;;;4314453;32;417533;-71
2024/03/19 12:05:06;;;;;;;100.53;58.00;;;;;;;;;;4336710;32;320265;-71
2024/03/19 12:07:33;;;;;;;34.40;19.80;;;;;;;;;;4324807;32;420160;-72
2024/03/19 12:09:59;;;;;;;51.83;27.10;;;;;;;;;;4337057;32;319274;-71
2024/03/19 12:12:27;;;;;;;13.10;8.67;;;;;;;;;;4325706;32;319433;-71
2024/03/19 12:14:55;;;;;;;14.17;8.57;;;;;;;;;;4338262;32;318389;-74
2024/03/19 12:17:22;;;;;;;12.63;7.27;;;;;;;;;;4328122;32;318443;-72
2024/03/19 12:19:51;;;;;;;14.20;6.97;;;;;;;;;;4337897;32;318341;-71
2024/03/19 12:22:18;;;;;;;19.13;12.47;;;;;;;;;;4326142;32;318134;-73
2024/03/19 12:24:45;;;;;;;22.37;12.80;;;;;;;;;;4337527;32;319453;-70
2024/03/19 12:27:12;;;;;;;23.07;10.70;;;;;;;;;;4327930;32;319260;-73
2024/03/19 12:29:39;;;;;;;22.93;9.77;;;;;;;;;;4337165;32;319453;-69
2024/03/19 12:32:15;;;;;;;10.63;5.70;;;;;;;;;;4336614;32;318272;-72
2024/03/19 12:34:58;;;;;;;12.07;7.57;;;;;;;;;;4321510;32;417022;-71
2024/03/19 12:37:26;;;;;;;22.37;10.80;;;;;;;;;;4328144;32;318566;-70
2024/03/19 12:39:53;;;;;;;27.07;14.53;;;;;;;;;;4337409;32;319796;-71
2024/03/19 12:42:21;;;;;;;18.30;8.47;;;;;;;;;;4325692;32;319394;-69
2024/03/19 12:44:50;;;;;;;43.87;23.87;;;;;;;;;;4336219;32;318473;-72
2024/03/19 12:47:18;;;;;;;18.97;10.80;;;;;;;;;;4326286;32;319659;-72
2024/03/19 12:49:45;;;;;;;12.60;5.97;;;;;;;;;;4336540;32;338671;-73
2024/03/19 12:52:12;;;;;;;15.00;9.43;;;;;;;;;;4326139;32;376061;-72
2024/03/19 12:54:40;;;;;;;18.47;8.37;;;;;;;;;;4335091;32;318401;-71
2024/03/19 12:57:07;;;;;;;13.83;8.47;;;;;;;;;;4327833;32;318172;-72
2024/03/19 12:59:35;;;;;;;14.60;7.83;;;;;;;;;;4337618;32;318355;-71
2024/03/19 13:02:02;;;;;;;11.03;7.00;;;;;;;;;;4335973;32;318266;-71
2024/03/19 13:04:29;;;;;;;11.23;6.83;;;;;;;;;;4324374;32;318638;-71
2024/03/19 13:06:56;;;;;;;16.17;10.90;;;;;;;;;;4335467;32;318322;-71
2024/03/19 13:09:24;;;;;;;15.30;8.67;;;;;;;;;;4325466;32;348543;-72
2024/03/19 13:11:52;;;;;;;12.63;7.20;;;;;;;;;;4336940;32;318430;-71
2024/03/19 13:14:19;;;;;;;12.57;7.17;;;;;;;;;;4323832;32;318195;-70
2024/03/19 13:16:45;;;;;;;7.73;5.73;;;;;;;;;;4335802;32;318480;-71
2024/03/19 13:19:13;;;;;;;13.60;6.73;;;;;;;;;;4327581;32;317467;-70
2024/03/19 13:21:40;;;;;;;13.33;6.90;;;;;;;;;;4334755;32;318314;-72
2024/03/19 13:24:08;;;;;;;8.23;5.50;;;;;;;;;;4327239;32;318544;-74
2024/03/19 13:26:35;;;;;;;12.37;5.17;;;;;;;;;;4334804;32;317224;-73
2024/03/19 13:29:03;;;;;;;12.60;8.13;;;;;;;;;;4337098;32;318263;-72
2024/03/19 13:31:30;;;;;;;10.53;6.40;;;;;;;;;;4318734;32;318262;-71
2024/03/19 13:33:57;;;;;;;15.43;6.47;;;;;;;;;;4337205;32;318201;-71
2024/03/19 13:36:24;;;;;;;11.07;7.47;;;;;;;;;;4324337;32;318147;-70
2024/03/19 13:38:51;;;;;;;13.13;8.30;;;;;;;;;;4336917;32;318656;-71
2024/03/19 13:41:19;;;;;;;14.20;9.27;;;;;;;;;;4327483;32;318389;-71
2024/03/19 13:43:46;;;;;;;10.30;6.10;;;;;;;;;;4336038;32;318223;-71
2024/03/19 13:46:15;;;;;;;12.17;5.00;;;;;;;;;;4327082;32;318765;-72
2024/03/19 13:48:43;;;;;;;9.97;7.17;;;;;;;;;;4334613;32;318419;-71
2024/03/19 13:51:10;;;;;;;11.20;6.20;;;;;;;;;;4326140;32;317591;-72
2024/03/19 13:53:38;;;;;;;10.50;6.17;;;;;;;;;;4337085;32;318234;-74
2024/03/19 13:56:05;;;;;;;13.27;7.30;;;;;;;;;;4337715;32;318146;-74
2024/03/19 13:58:32;;;;;;;17.40;6.80;;;;;;;;;;4317161;32;400761;-72
2024/03/19 14:01:00;;;;;;;10.60;4.23;;;;;;;;;;4337925;32;343865;-71
2024/03/19 14:03:30;;;;;;;15.93;9.37;;;;;;;;;;4330438;32;318199;-71
2024/03/19 14:05:57;;;;;;;9.00;5.70;;;;;;;;;;4339649;32;318307;-71
2024/03/19 14:08:24;;;;;;;11.17;4.80;;;;;;;;;;4326731;32;316456;-71
2024/03/19 14:10:51;;;;;;;11.43;5.57;;;;;;;;;;4338442;32;318721;-73
2024/03/19 14:13:18;;;;;;;10.30;5.93;;;;;;;;;;4329743;32;318354;-73
2024/03/19 14:15:45;;;;;;;13.97;6.43;;;;;;;;;;4339828;32;317541;-71
2024/03/19 14:18:12;;;;;;;10.20;6.20;;;;;;;;;;4329872;32;318693;-71